sensor_id;sensor_type;location;lat;lon;timestamp;pressure;altitude;pressure_sealevel;temperature;humidity
74474;BME280;62922;-6.168;106.796;2023-04-06T00:02:16;101118.94;;;31.00;62.09
74474;BME280;62922;-6.168;106.796;2023-04-06T00:04:42;101116.47;;;30.98;62.18
74474;BME280;62922;-6.168;106.796;2023-04-06T00:07:08;101118.78;;;30.96;62.07
74474;BME280;62922;-6.168;106.796;2023-04-06T00:09:34;101123.56;;;30.96;62.14
74474;BME280;62922;-6.168;106.796;2023-04-06T00:12:00;101129.19;;;30.96;62.00
74474;BME280;62922;-6.168;106.796;2023-04-06T00:14:26;101131.50;;;30.94;62.32
74474;BME280;62922;-6.168;106.796;2023-04-06T00:16:52;101125.03;;;30.93;61.88
74474;BME280;62922;-6.168;106.796;2023-04-06T00:19:18;101123.06;;;30.94;62.14
74474;BME280;62922;-6.168;106.796;2023-04-06T00:21:44;101138.00;;;30.94;62.41
74474;BME280;62922;-6.168;106.796;2023-04-06T00:24:10;101134.19;;;30.99;62.65
74474;BME280;62922;-6.168;106.796;2023-04-06T00:26:36;101140.84;;;31.03;62.62
74474;BME280;62922;-6.168;106.796;2023-04-06T00:29:01;101128.94;;;31.06;63.33
74474;BME280;62922;-6.168;106.796;2023-04-06T00:31:27;101135.88;;;31.08;63.90
74474;BME280;62922;-6.168;106.796;2023-04-06T00:33:53;101132.25;;;31.08;63.78
74474;BME280;62922;-6.168;106.796;2023-04-06T00:36:19;101132.88;;;31.05;63.79
74474;BME280;62922;-6.168;106.796;2023-04-06T00:38:45;101136.88;;;31.04;63.39
74474;BME280;62922;-6.168;106.796;2023-04-06T00:41:11;101134.88;;;31.04;63.20
74474;BME280;62922;-6.168;106.796;2023-04-06T00:43:37;101132.88;;;31.05;63.43
74474;BME280;62922;-6.168;106.796;2023-04-06T00:46:03;101130.72;;;31.02;63.33
74474;BME280;62922;-6.168;106.796;2023-04-06T00:48:29;101130.41;;;31.03;63.18
74474;BME280;62922;-6.168;106.796;2023-04-06T00:50:57;101130.41;;;31.03;63.32
74474;BME280;62922;-6.168;106.796;2023-04-06T00:53:23;101130.72;;;31.02;63.13
74474;BME280;62922;-6.168;106.796;2023-04-06T00:55:49;101131.56;;;31.02;63.59
74474;BME280;62922;-6.168;106.796;2023-04-06T00:58:15;101134.38;;;31.02;63.17
74474;BME280;62922;-6.168;106.796;2023-04-06T01:00:41;101140.84;;;31.03;63.03
74474;BME280;62922;-6.168;106.796;2023-04-06T01:03:08;101144.81;;;31.02;63.22
74474;BME280;62922;-6.168;106.796;2023-04-06T01:05:35;101140.84;;;31.03;63.21
74474;BME280;62922;-6.168;106.796;2023-04-06T01:08:05;101142.00;;;31.02;63.23
74474;BME280;62922;-6.168;106.796;2023-04-06T01:10:31;101136.38;;;31.02;63.25
74474;BME280;62922;-6.168;106.796;2023-04-06T01:12:57;101143.97;;;31.01;62.92
74474;BME280;62922;-6.168;106.796;2023-04-06T01:15:23;101144.81;;;31.02;62.76
74474;BME280;62922;-6.168;106.796;2023-04-06T01:17:49;101148.78;;;31.01;63.06
74474;BME280;62922;-6.168;106.796;2023-04-06T01:20:15;101151.59;;;31.01;63.07
74474;BME280;62922;-6.168;106.796;2023-04-06T01:22:41;101143.13;;;31.01;62.65
74474;BME280;62922;-6.168;106.796;2023-04-06T01:25:07;101142.34;;;31.00;62.80
74474;BME280;62922;-6.168;106.796;2023-04-06T01:27:34;101141.50;;;31.00;62.81
74474;BME280;62922;-6.168;106.796;2023-04-06T01:29:59;101149.13;;;30.99;62.65
74474;BME280;62922;-6.168;106.796;2023-04-06T01:32:25;101141.50;;;31.00;62.81
74474;BME280;62922;-6.168;106.796;2023-04-06T01:34:54;101143.13;;;31.01;62.71
74474;BME280;62922;-6.168;106.796;2023-04-06T01:37:20;101148.28;;;30.99;62.46
74474;BME280;62922;-6.168;106.796;2023-04-06T01:39:46;101148.78;;;31.01;62.29
74474;BME280;62922;-6.168;106.796;2023-04-06T01:42:11;101154.41;;;31.01;62.51
74474;BME280;62922;-6.168;106.796;2023-04-06T01:44:37;101145.66;;;31.02;62.45
74474;BME280;62922;-6.168;106.796;2023-04-06T01:47:03;101142.00;;;31.02;62.67
74474;BME280;62922;-6.168;106.796;2023-04-06T01:49:29;101145.66;;;31.02;62.52
74474;BME280;62922;-6.168;106.796;2023-04-06T01:51:55;101148.16;;;31.04;62.46
74474;BME280;62922;-6.168;106.796;2023-04-06T01:54:21;101148.97;;;31.04;62.27
74474;BME280;62922;-6.168;106.796;2023-04-06T01:56:47;101144.50;;;31.03;62.22
74474;BME280;62922;-6.168;106.796;2023-04-06T01:59:15;101149.78;;;31.05;61.90
74474;BME280;62922;-6.168;106.796;2023-04-06T02:01:41;101153.13;;;31.07;62.27
74474;BME280;62922;-6.168;106.796;2023-04-06T02:04:07;101147.50;;;31.07;61.55
74474;BME280;62922;-6.168;106.796;2023-04-06T02:06:33;101154.81;;;31.08;61.23
74474;BME280;62922;-6.168;106.796;2023-04-06T02:08:58;101154.13;;;31.11;61.13
74474;BME280;62922;-6.168;106.796;2023-04-06T02:11:24;101151.81;;;31.13;61.03
74474;BME280;62922;-6.168;106.796;2023-04-06T02:13:50;101153.47;;;31.14;61.78
74474;BME280;62922;-6.168;106.796;2023-04-06T02:16:16;101148.16;;;31.12;61.22
74474;BME280;62922;-6.168;106.796;2023-04-06T02:18:42;101151.81;;;31.13;61.23
74474;BME280;62922;-6.168;106.796;2023-04-06T02:21:08;101153.47;;;31.14;61.44
74474;BME280;62922;-6.168;106.796;2023-04-06T02:23:34;101143.88;;;31.15;60.76
74474;BME280;62922;-6.168;106.796;2023-04-06T02:26:00;101148.69;;;31.14;60.35
74474;BME280;62922;-6.168;106.796;2023-04-06T02:28:26;101136.22;;;31.15;60.30
74474;BME280;62922;-6.168;106.796;2023-04-06T02:30:52;101134.25;;;31.16;60.44
74474;BME280;62922;-6.168;106.796;2023-04-06T02:33:17;101134.75;;;31.18;59.97
74474;BME280;62922;-6.168;106.796;2023-04-06T02:35:44;101140.38;;;31.18;60.36
74474;BME280;62922;-6.168;106.796;2023-04-06T02:38:10;101136.41;;;31.19;60.28
74474;BME280;62922;-6.168;106.796;2023-04-06T02:40:35;101134.09;;;31.21;59.70
74474;BME280;62922;-6.168;106.796;2023-04-06T02:43:01;101127.31;;;31.22;59.56
74474;BME280;62922;-6.168;106.796;2023-04-06T02:45:27;101134.59;;;31.23;60.01
74474;BME280;62922;-6.168;106.796;2023-04-06T02:47:53;101135.09;;;31.25;59.26
74474;BME280;62922;-6.168;106.796;2023-04-06T02:50:22;101134.25;;;31.24;59.03
74474;BME280;62922;-6.168;106.796;2023-04-06T02:52:47;101135.09;;;31.25;58.77
74474;BME280;62922;-6.168;106.796;2023-04-06T02:55:13;101129.13;;;31.26;58.52
74474;BME280;62922;-6.168;106.796;2023-04-06T02:57:39;101113.88;;;31.27;58.63
74474;BME280;62922;-6.168;106.796;2023-04-06T03:00:06;101117.22;;;31.29;58.22
74474;BME280;62922;-6.168;106.796;2023-04-06T03:02:32;101114.38;;;31.29;57.97
74474;BME280;62922;-6.168;106.796;2023-04-06T03:04:58;101106.75;;;31.30;58.03
74474;BME280;62922;-6.168;106.796;2023-04-06T03:07:24;101116.53;;;31.32;57.59
74474;BME280;62922;-6.168;106.796;2023-04-06T03:09:50;101116.22;;;31.34;57.14
74474;BME280;62922;-6.168;106.796;2023-04-06T03:12:16;101106.94;;;31.33;57.48
74474;BME280;62922;-6.168;106.796;2023-04-06T03:14:44;101109.44;;;31.35;56.93
74474;BME280;62922;-6.168;106.796;2023-04-06T03:17:10;101109.13;;;31.36;56.95
74474;BME280;62922;-6.168;106.796;2023-04-06T03:19:36;101106.81;;;31.38;57.06
74474;BME280;62922;-6.168;106.796;2023-04-06T03:22:02;101102.00;;;31.39;57.17
74474;BME280;62922;-6.168;106.796;2023-04-06T03:24:28;101084.75;;;31.40;57.03
74474;BME280;62922;-6.168;106.796;2023-04-06T03:26:54;101087.56;;;31.40;57.23
74474;BME280;62922;-6.168;106.796;2023-04-06T03:29:20;101082.44;;;31.42;56.48
74474;BME280;62922;-6.168;106.796;2023-04-06T03:31:46;101086.06;;;31.43;56.28
74474;BME280;62922;-6.168;106.796;2023-04-06T03:34:12;101075.63;;;31.43;56.14
74474;BME280;62922;-6.168;106.796;2023-04-06T03:36:37;101065.19;;;31.44;56.28
74474;BME280;62922;-6.168;106.796;2023-04-06T03:39:03;101074.13;;;31.46;55.89
74474;BME280;62922;-6.168;106.796;2023-04-06T03:41:29;101063.66;;;31.46;55.91
74474;BME280;62922;-6.168;106.796;2023-04-06T03:43:55;101064.16;;;31.48;55.40
74474;BME280;62922;-6.168;106.796;2023-04-06T03:46:21;101054.91;;;31.48;55.34
74474;BME280;62922;-6.168;106.796;2023-04-06T03:48:48;101051.75;;;31.49;55.28
74474;BME280;62922;-6.168;106.796;2023-04-06T03:51:14;101056.22;;;31.50;55.16
74474;BME280;62922;-6.168;106.796;2023-04-06T03:53:40;101038.94;;;31.52;55.22
74474;BME280;62922;-6.168;106.796;2023-04-06T03:56:06;101050.72;;;31.54;55.08
74474;BME280;62922;-6.168;106.796;2023-04-06T03:58:32;101040.28;;;31.54;54.81
74474;BME280;62922;-6.168;106.796;2023-04-06T04:00:57;101041.63;;;31.57;55.25
74474;BME280;62922;-6.168;106.796;2023-04-06T04:03:23;101038.81;;;31.57;54.82
74474;BME280;62922;-6.168;106.796;2023-04-06T04:05:52;101030.84;;;31.59;55.24
74474;BME280;62922;-6.168;106.796;2023-04-06T04:08:18;101037.28;;;31.59;54.63
74474;BME280;62922;-6.168;106.796;2023-04-06T04:10:44;101024.53;;;31.62;54.72
74474;BME280;62922;-6.168;106.796;2023-04-06T04:13:10;101017.69;;;31.63;55.11
74474;BME280;62922;-6.168;106.796;2023-04-06T04:15:35;101011.75;;;31.65;54.64
74474;BME280;62922;-6.168;106.796;2023-04-06T04:18:01;101011.41;;;31.66;54.21
74474;BME280;62922;-6.168;106.796;2023-04-06T04:20:27;101007.91;;;31.69;53.94
74474;BME280;62922;-6.168;106.796;2023-04-06T04:22:53;101005.59;;;31.71;55.00
74474;BME280;62922;-6.168;106.796;2023-04-06T04:25:19;101007.22;;;31.72;54.92
74474;BME280;62922;-6.168;106.796;2023-04-06T04:27:45;100998.47;;;31.74;54.87
74474;BME280;62922;-6.168;106.796;2023-04-06T04:30:11;100996.44;;;31.74;54.15
74474;BME280;62922;-6.168;106.796;2023-04-06T04:32:37;100989.66;;;31.75;53.68
74474;BME280;62922;-6.168;106.796;2023-04-06T04:35:05;100988.97;;;31.78;53.73
74474;BME280;62922;-6.168;106.796;2023-04-06T04:37:31;100979.34;;;31.79;53.43
74474;BME280;62922;-6.168;106.796;2023-04-06T04:39:57;100981.50;;;31.82;53.25
74474;BME280;62922;-6.168;106.796;2023-04-06T04:42:25;100963.53;;;31.87;52.97
74474;BME280;62922;-6.168;106.796;2023-04-06T04:44:51;100958.41;;;31.89;52.47
74474;BME280;62922;-6.168;106.796;2023-04-06T04:47:17;100948.81;;;31.90;52.43
74474;BME280;62922;-6.168;106.796;2023-04-06T04:49:43;100951.78;;;31.93;52.30
74474;BME280;62922;-6.168;106.796;2023-04-06T04:52:09;100940.66;;;31.97;52.24
74474;BME280;62922;-6.168;106.796;2023-04-06T04:54:35;100942.78;;;32.00;52.21
74474;BME280;62922;-6.168;106.796;2023-04-06T04:57:01;100930.00;;;32.02;52.32
74474;BME280;62922;-6.168;106.796;2023-04-06T04:59:27;100928.03;;;32.03;52.17
74474;BME280;62922;-6.168;106.796;2023-04-06T05:01:54;100923.19;;;32.03;51.78
74474;BME280;62922;-6.168;106.796;2023-04-06T05:04:20;100916.72;;;32.03;51.24
74474;BME280;62922;-6.168;106.796;2023-04-06T05:06:46;100905.09;;;32.04;51.30
74474;BME280;62922;-6.168;106.796;2023-04-06T05:09:15;100907.56;;;32.06;51.43
74474;BME280;62922;-6.168;106.796;2023-04-06T05:11:41;100900.75;;;32.07;51.76
74474;BME280;62922;-6.168;106.796;2023-04-06T05:14:07;100897.59;;;32.08;51.15
74474;BME280;62922;-6.168;106.796;2023-04-06T05:16:33;100896.06;;;32.11;50.86
74474;BME280;62922;-6.168;106.796;2023-04-06T05:18:59;100888.59;;;32.15;49.38
74474;BME280;62922;-6.168;106.796;2023-04-06T05:21:25;100874.97;;;32.17;49.63
74474;BME280;62922;-6.168;106.796;2023-04-06T05:23:52;100868.97;;;32.18;49.29
74474;BME280;62922;-6.168;106.796;2023-04-06T05:26:19;100873.13;;;32.21;49.68
74474;BME280;62922;-6.168;106.796;2023-04-06T05:28:45;100866.78;;;32.24;49.37
74474;BME280;62922;-6.168;106.796;2023-04-06T05:31:11;100887.03;;;32.26;48.90
74474;BME280;62922;-6.168;106.796;2023-04-06T05:33:37;100872.22;;;32.29;48.39
74474;BME280;62922;-6.168;106.796;2023-04-06T05:36:03;100856.94;;;32.30;48.06
74474;BME280;62922;-6.168;106.796;2023-04-06T05:38:30;100850.97;;;32.31;47.98
74474;BME280;62922;-6.168;106.796;2023-04-06T05:40:58;100851.44;;;32.33;48.50
74474;BME280;62922;-6.168;106.796;2023-04-06T05:43:24;100846.28;;;32.35;47.75
74474;BME280;62922;-6.168;106.796;2023-04-06T05:45:50;100845.94;;;32.37;47.95
74474;BME280;62922;-6.168;106.796;2023-04-06T05:48:16;100845.25;;;32.40;46.85
74474;BME280;62922;-6.168;106.796;2023-04-06T05:50:42;100835.63;;;32.41;46.45
74474;BME280;62922;-6.168;106.796;2023-04-06T05:53:09;100817.50;;;32.42;47.29
74474;BME280;62922;-6.168;106.796;2023-04-06T05:55:34;100816.00;;;32.44;46.43
74474;BME280;62922;-6.168;106.796;2023-04-06T05:58:00;100816.50;;;32.46;46.58
74474;BME280;62922;-6.168;106.796;2023-04-06T06:00:26;100813.31;;;32.48;46.56
74474;BME280;62922;-6.168;106.796;2023-04-06T06:02:52;100819.47;;;32.50;46.41
74474;BME280;62922;-6.168;106.796;2023-04-06T06:05:21;100812.28;;;32.52;46.21
74474;BME280;62922;-6.168;106.796;2023-04-06T06:07:46;100810.28;;;32.53;45.81
74474;BME280;62922;-6.168;106.796;2023-04-06T06:10:12;100808.78;;;32.55;46.11
74474;BME280;62922;-6.168;106.796;2023-04-06T06:12:38;100806.78;;;32.56;46.32
74474;BME280;62922;-6.168;106.796;2023-04-06T06:15:04;100808.91;;;32.59;46.31
74474;BME280;62922;-6.168;106.796;2023-04-06T06:17:31;100798.44;;;32.60;46.34
74474;BME280;62922;-6.168;106.796;2023-04-06T06:19:57;100789.97;;;32.60;47.22
74474;BME280;62922;-6.168;106.796;2023-04-06T06:22:23;100791.63;;;32.61;47.01
74474;BME280;62922;-6.168;106.796;2023-04-06T06:24:48;100792.09;;;32.63;46.78
74474;BME280;62922;-6.168;106.796;2023-04-06T06:27:15;100788.91;;;32.64;47.58
74474;BME280;62922;-6.168;106.796;2023-04-06T06:29:41;100778.94;;;32.67;46.77
74474;BME280;62922;-6.168;106.796;2023-04-06T06:32:07;100784.25;;;32.68;46.81
74474;BME280;62922;-6.168;106.796;2023-04-06T06:34:35;100782.25;;;32.69;46.96
74474;BME280;62922;-6.168;106.796;2023-04-06T06:37:01;100775.41;;;32.70;46.83
74474;BME280;62922;-6.168;106.796;2023-04-06T06:39:28;100772.22;;;32.71;47.21
74474;BME280;62922;-6.168;106.796;2023-04-06T06:41:54;100780.72;;;32.71;47.22
74474;BME280;62922;-6.168;106.796;2023-04-06T06:44:20;100767.41;;;32.72;47.09
74474;BME280;62922;-6.168;106.796;2023-04-06T06:46:47;100765.91;;;32.74;47.40
74474;BME280;62922;-6.168;106.796;2023-04-06T06:49:13;100766.72;;;32.75;47.49
74474;BME280;62922;-6.168;106.796;2023-04-06T06:51:39;100773.19;;;32.75;46.87
74474;BME280;62922;-6.168;106.796;2023-04-06T06:54:06;100769.22;;;32.76;47.42
74474;BME280;62922;-6.168;106.796;2023-04-06T06:56:32;100757.91;;;32.76;47.08
74474;BME280;62922;-6.168;106.796;2023-04-06T06:59:01;100759.19;;;32.79;47.04
74474;BME280;62922;-6.168;106.796;2023-04-06T07:01:26;100752.72;;;32.78;47.35
74474;BME280;62922;-6.168;106.796;2023-04-06T07:03:52;100747.91;;;32.79;47.49
74474;BME280;62922;-6.168;106.796;2023-04-06T07:06:21;100744.22;;;32.78;47.57
74474;BME280;62922;-6.168;106.796;2023-04-06T07:08:47;100739.41;;;32.79;47.29
74474;BME280;62922;-6.168;106.796;2023-04-06T07:11:13;100737.44;;;32.79;47.45
74474;BME280;62922;-6.168;106.796;2023-04-06T07:13:39;100725.75;;;32.81;47.28
74474;BME280;62922;-6.168;106.796;2023-04-06T07:16:05;100723.78;;;32.81;47.45
74474;BME280;62922;-6.168;106.796;2023-04-06T07:18:31;100723.78;;;32.81;47.17
74474;BME280;62922;-6.168;106.796;2023-04-06T07:20:57;100713.31;;;32.82;47.05
74474;BME280;62922;-6.168;106.796;2023-04-06T07:23:22;100717.75;;;32.83;46.58
74474;BME280;62922;-6.168;106.796;2023-04-06T07:25:48;100710.13;;;32.83;46.97
74474;BME280;62922;-6.168;106.796;2023-04-06T07:28:17;100700.81;;;32.83;47.13
74474;BME280;62922;-6.168;106.796;2023-04-06T07:30:43;100705.28;;;32.84;47.54
74474;BME280;62922;-6.168;106.796;2023-04-06T07:33:09;100686.31;;;32.84;47.03
74474;BME280;62922;-6.168;106.796;2023-04-06T07:35:35;100688.31;;;32.84;46.99
74474;BME280;62922;-6.168;106.796;2023-04-06T07:38:02;100682.34;;;32.85;47.20
74474;BME280;62922;-6.168;106.796;2023-04-06T07:40:30;100675.41;;;32.95;47.00
74474;BME280;62922;-6.168;106.796;2023-04-06T07:42:58;100670.72;;;32.99;47.06
74474;BME280;62922;-6.168;106.796;2023-04-06T07:45:24;100663.19;;;33.03;46.70
74474;BME280;62922;-6.168;106.796;2023-04-06T07:47:50;100663.56;;;33.01;46.52
74474;BME280;62922;-6.168;106.796;2023-04-06T07:50:16;100662.03;;;33.04;46.42
74474;BME280;62922;-6.168;106.796;2023-04-06T07:52:42;100659.66;;;33.06;46.74
74474;BME280;62922;-6.168;106.796;2023-04-06T07:55:08;100654.84;;;33.06;46.48
74474;BME280;62922;-6.168;106.796;2023-04-06T07:57:34;100652.47;;;33.08;46.13
74474;BME280;62922;-6.168;106.796;2023-04-06T08:00:00;100654.94;;;33.10;46.17
74474;BME280;62922;-6.168;106.796;2023-04-06T08:02:26;100635.16;;;33.10;45.99
74474;BME280;62922;-6.168;106.796;2023-04-06T08:04:52;100636.81;;;33.11;46.41
74474;BME280;62922;-6.168;106.796;2023-04-06T08:07:18;100635.63;;;33.12;46.26
74474;BME280;62922;-6.168;106.796;2023-04-06T08:09:43;100637.63;;;33.11;46.63
74474;BME280;62922;-6.168;106.796;2023-04-06T08:12:09;100632.81;;;33.12;46.53
74474;BME280;62922;-6.168;106.796;2023-04-06T08:14:35;100632.69;;;33.08;46.56
74474;BME280;62922;-6.168;106.796;2023-04-06T08:17:01;100622.22;;;33.09;46.61
74474;BME280;62922;-6.168;106.796;2023-04-06T08:19:27;100630.69;;;33.09;46.53
74474;BME280;62922;-6.168;106.796;2023-04-06T08:21:53;100625.84;;;33.09;46.62
74474;BME280;62922;-6.168;106.796;2023-04-06T08:24:19;100618.19;;;33.10;46.68
74474;BME280;62922;-6.168;106.796;2023-04-06T08:26:45;100624.69;;;33.10;46.68
74474;BME280;62922;-6.168;106.796;2023-04-06T08:29:11;100623.50;;;33.11;46.77
74474;BME280;62922;-6.168;106.796;2023-04-06T08:31:37;100631.66;;;33.13;47.10
74474;BME280;62922;-6.168;106.796;2023-04-06T08:34:04;100626.00;;;33.13;46.80
74474;BME280;62922;-6.168;106.796;2023-04-06T08:36:31;100623.97;;;33.13;46.71
74474;BME280;62922;-6.168;106.796;2023-04-06T08:38:57;100630.44;;;33.14;46.44
74474;BME280;62922;-6.168;106.796;2023-04-06T08:41:23;100627.63;;;33.14;46.65
74474;BME280;62922;-6.168;106.796;2023-04-06T08:43:49;100633.41;;;33.17;46.84
74474;BME280;62922;-6.168;106.796;2023-04-06T08:46:20;100630.22;;;33.19;47.02
74474;BME280;62922;-6.168;106.796;2023-04-06T08:48:46;100616.91;;;33.19;46.95
74474;BME280;62922;-6.168;106.796;2023-04-06T08:51:15;100621.84;;;33.22;47.03
74474;BME280;62922;-6.168;106.796;2023-04-06T08:53:41;100616.19;;;33.22;46.84
74474;BME280;62922;-6.168;106.796;2023-04-06T08:56:07;100616.66;;;33.24;47.12
74474;BME280;62922;-6.168;106.796;2023-04-06T08:58:35;100616.31;;;33.26;47.17
74474;BME280;62922;-6.168;106.796;2023-04-06T09:01:06;100604.31;;;33.29;47.36
74474;BME280;62922;-6.168;106.796;2023-04-06T09:03:38;100607.97;;;33.29;47.39
74474;BME280;62922;-6.168;106.796;2023-04-06T09:06:06;100610.91;;;33.33;47.35
74474;BME280;62922;-6.168;106.796;2023-04-06T09:08:33;100608.28;;;33.28;47.13
74474;BME280;62922;-6.168;106.796;2023-04-06T09:11:01;100600.28;;;33.18;47.66
74474;BME280;62922;-6.168;106.796;2023-04-06T09:13:29;100597.00;;;33.16;47.20
74474;BME280;62922;-6.168;106.796;2023-04-06T09:16:05;100600.66;;;33.16;47.53
74474;BME280;62922;-6.168;106.796;2023-04-06T09:18:32;100606.31;;;33.16;47.82
74474;BME280;62922;-6.168;106.796;2023-04-06T09:21:01;100601.47;;;33.17;47.27
74474;BME280;62922;-6.168;106.796;2023-04-06T09:23:28;100590.97;;;33.17;47.87
74474;BME280;62922;-6.168;106.796;2023-04-06T09:26:15;100588.97;;;33.18;47.30
74474;BME280;62922;-6.168;106.796;2023-04-06T09:28:41;100604.75;;;33.19;47.43
74474;BME280;62922;-6.168;106.796;2023-04-06T09:31:07;100600.78;;;33.20;47.52
74474;BME280;62922;-6.168;106.796;2023-04-06T09:33:38;100608.06;;;33.21;47.48
74474;BME280;62922;-6.168;106.796;2023-04-06T09:36:05;100607.69;;;33.22;47.46
74474;BME280;62922;-6.168;106.796;2023-04-06T09:38:31;100595.59;;;33.22;47.98
74474;BME280;62922;-6.168;106.796;2023-04-06T09:40:57;100598.88;;;33.24;47.89
74474;BME280;62922;-6.168;106.796;2023-04-06T09:43:26;100608.53;;;33.23;47.69
74474;BME280;62922;-6.168;106.796;2023-04-06T09:45:55;100611.38;;;33.23;48.06
74474;BME280;62922;-6.168;106.796;2023-04-06T09:48:21;100610.19;;;33.24;47.96
74474;BME280;62922;-6.168;106.796;2023-04-06T09:50:49;100612.19;;;33.23;48.06
74474;BME280;62922;-6.168;106.796;2023-04-06T09:53:16;100611.38;;;33.23;47.85
74474;BME280;62922;-6.168;106.796;2023-04-06T09:55:45;100617.03;;;33.23;48.04
74474;BME280;62922;-6.168;106.796;2023-04-06T09:58:13;100618.69;;;33.24;47.36
74474;BME280;62922;-6.168;106.796;2023-04-06T10:05:55;100612.19;;;33.23;47.86
74474;BME280;62922;-6.168;106.796;2023-04-06T10:08:24;100623.16;;;33.25;47.90
74474;BME280;62922;-6.168;106.796;2023-04-06T10:10:53;100621.16;;;33.25;47.58
74474;BME280;62922;-6.168;106.796;2023-04-06T10:13:19;100629.41;;;33.30;47.71
74474;BME280;62922;-6.168;106.796;2023-04-06T10:15:45;100622.44;;;33.40;47.60
74474;BME280;62922;-6.168;106.796;2023-04-06T10:18:11;100633.88;;;33.43;47.32
74474;BME280;62922;-6.168;106.796;2023-04-06T10:23:16;100622.44;;;33.40;47.36
74474;BME280;62922;-6.168;106.796;2023-04-06T10:25:56;100638.59;;;33.39;47.60
74474;BME280;62922;-6.168;106.796;2023-04-06T10:28:23;100636.59;;;33.40;47.41
74474;BME280;62922;-6.168;106.796;2023-04-06T10:30:49;100641.41;;;33.39;47.76
74474;BME280;62922;-6.168;106.796;2023-04-06T10:33:15;100647.06;;;33.39;47.79
74474;BME280;62922;-6.168;106.796;2023-04-06T10:35:42;100636.13;;;33.38;48.09
74474;BME280;62922;-6.168;106.796;2023-04-06T10:38:08;100644.25;;;33.39;47.55
74474;BME280;62922;-6.168;106.796;2023-04-06T10:40:37;100646.25;;;33.39;47.60
74474;BME280;62922;-6.168;106.796;2023-04-06T10:43:13;100651.91;;;33.39;48.03
74474;BME280;62922;-6.168;106.796;2023-04-06T10:45:40;100648.25;;;33.38;47.64
74474;BME280;62922;-6.168;106.796;2023-04-06T10:48:15;100657.56;;;33.39;48.16
74474;BME280;62922;-6.168;106.796;2023-04-06T10:50:43;100663.94;;;33.36;48.09
74474;BME280;62922;-6.168;106.796;2023-04-06T10:53:10;100669.09;;;33.34;47.99
74474;BME280;62922;-6.168;106.796;2023-04-06T10:55:37;100674.78;;;33.34;47.90
74474;BME280;62922;-6.168;106.796;2023-04-06T10:58:06;100671.94;;;33.34;48.43
74474;BME280;62922;-6.168;106.796;2023-04-06T11:00:32;100669.09;;;33.34;48.66
74474;BME280;62922;-6.168;106.796;2023-04-06T11:02:59;100673.13;;;33.33;48.14
74474;BME280;62922;-6.168;106.796;2023-04-06T11:05:27;100680.78;;;33.32;48.77
74474;BME280;62922;-6.168;106.796;2023-04-06T11:07:53;100694.09;;;33.32;48.33
74474;BME280;62922;-6.168;106.796;2023-04-06T11:10:21;100686.44;;;33.32;48.46
74474;BME280;62922;-6.168;106.796;2023-04-06T11:12:55;100696.94;;;33.32;48.52
74474;BME280;62922;-6.168;106.796;2023-04-06T11:15:22;100692.47;;;33.31;49.16
74474;BME280;62922;-6.168;106.796;2023-04-06T11:17:48;100697.28;;;33.30;48.77
74474;BME280;62922;-6.168;106.796;2023-04-06T11:20:14;100698.47;;;33.29;49.08
74474;BME280;62922;-6.168;106.796;2023-04-06T11:22:50;100705.28;;;33.28;48.87
74474;BME280;62922;-6.168;106.796;2023-04-06T11:25:16;100705.66;;;33.27;48.90
74474;BME280;62922;-6.168;106.796;2023-04-06T11:27:42;100718.94;;;33.26;49.67
74474;BME280;62922;-6.168;106.796;2023-04-06T11:30:09;100716.13;;;33.26;49.36
74474;BME280;62922;-6.168;106.796;2023-04-06T11:32:39;100718.94;;;33.26;49.62
74474;BME280;62922;-6.168;106.796;2023-04-06T11:35:06;100729.44;;;33.26;49.78
74474;BME280;62922;-6.168;106.796;2023-04-06T11:37:32;100743.13;;;33.24;49.97
74474;BME280;62922;-6.168;106.796;2023-04-06T11:39:58;100746.41;;;33.26;49.98
74474;BME280;62922;-6.168;106.796;2023-04-06T11:42:25;100752.78;;;33.23;49.55
74474;BME280;62922;-6.168;106.796;2023-04-06T11:44:53;100748.63;;;33.20;50.05
74474;BME280;62922;-6.168;106.796;2023-04-06T11:47:20;100762.78;;;33.20;49.47
74474;BME280;62922;-6.168;106.796;2023-04-06T11:49:52;100765.59;;;33.20;50.23
74474;BME280;62922;-6.168;106.796;2023-04-06T11:52:20;100774.09;;;33.20;50.12
74474;BME280;62922;-6.168;106.796;2023-04-06T11:54:47;100778.47;;;33.18;49.65
74474;BME280;62922;-6.168;106.796;2023-04-06T11:57:13;100782.94;;;33.19;49.77
74474;BME280;62922;-6.168;106.796;2023-04-06T11:59:40;100789.78;;;33.18;49.67
74474;BME280;62922;-6.168;106.796;2023-04-06T12:02:06;100784.13;;;33.18;50.16
74474;BME280;62922;-6.168;106.796;2023-04-06T12:04:34;100801.91;;;33.18;51.30
74474;BME280;62922;-6.168;106.796;2023-04-06T12:07:00;100807.91;;;33.17;51.36
74474;BME280;62922;-6.168;106.796;2023-04-06T12:09:26;100815.56;;;33.16;51.80
74474;BME280;62922;-6.168;106.796;2023-04-06T12:11:52;100819.56;;;33.15;51.66
74474;BME280;62922;-6.168;106.796;2023-04-06T12:14:19;100828.41;;;33.14;51.60
74474;BME280;62922;-6.168;106.796;2023-04-06T12:16:45;100827.56;;;33.13;51.46
74474;BME280;62922;-6.168;106.796;2023-04-06T12:19:11;100830.75;;;33.12;51.48
74474;BME280;62922;-6.168;106.796;2023-04-06T12:21:37;100842.06;;;33.12;51.37
74474;BME280;62922;-6.168;106.796;2023-04-06T12:24:05;100844.03;;;33.11;51.13
74474;BME280;62922;-6.168;106.796;2023-04-06T12:26:32;100848.91;;;33.11;51.89
74474;BME280;62922;-6.168;106.796;2023-04-06T12:28:58;100863.84;;;33.11;51.35
74474;BME280;62922;-6.168;106.796;2023-04-06T12:31:32;100863.34;;;33.09;52.30
74474;BME280;62922;-6.168;106.796;2023-04-06T12:33:58;100863.03;;;33.11;52.30
74474;BME280;62922;-6.168;106.796;2023-04-06T12:36:24;100870.34;;;33.12;52.88